Time;durP1;ratioP1;P1;durP2;ratioP2;P2;SDS_P1;SDS_P2;PMS_P1;PMS_P2;Temp;Humidity;BMP_temperature;BMP_pressure;BME280_temperature;BME280_humidity;BME280_pressure;Samples;Min_cycle;Max_cycle;Signal;HPM_P1;HPM_P2
2022/05/29 00:00:45;;;;;;;0.47;0.30;;;9.70;99.90;;;;;;5058066;28;20021;-66
2022/05/29 00:03:11;;;;;;;1.02;0.30;;;9.70;99.90;;;;;;5059540;28;20040;-66
2022/05/29 00:05:38;;;;;;;0.28;0.20;;;9.80;99.90;;;;;;5042133;28;20029;-66
2022/05/29 00:08:05;;;;;;;0.75;0.30;;;9.80;99.90;;;;;;5058665;28;20017;-66
2022/05/29 00:10:37;;;;;;;0.57;0.30;;;9.80;99.90;;;;;;5059100;28;20029;-65
2022/05/29 00:13:03;;;;;;;0.57;0.30;;;9.80;99.90;;;;;;5058106;28;20066;-66
2022/05/29 00:15:29;;;;;;;0.38;0.30;;;9.90;99.90;;;;;;5042939;28;20132;-66
2022/05/29 00:17:55;;;;;;;0.80;0.30;;;9.80;99.90;;;;;;5041430;28;20094;-66
2022/05/29 00:20:20;;;;;;;0.80;0.30;;;9.90;99.90;;;;;;5061181;28;20515;-66
2022/05/29 00:22:46;;;;;;;0.57;0.30;;;9.90;99.90;;;;;;5042107;28;20036;-66
2022/05/29 00:25:12;;;;;;;0.25;0.22;;;9.90;99.90;;;;;;5042490;28;20370;-66
2022/05/29 00:27:39;;;;;;;0.38;0.28;;;9.90;99.90;;;;;;5042608;28;20029;-66
2022/05/29 00:30:07;;;;;;;0.38;0.22;;;9.90;99.90;;;;;;5041400;28;20501;-66
2022/05/29 00:32:33;;;;;;;1.15;0.40;;;9.90;99.90;;;;;;5058858;28;20037;-66
2022/05/29 00:34:59;;;;;;;0.70;0.30;;;9.80;99.90;;;;;;5041071;28;20082;-66
2022/05/29 00:37:25;;;;;;;0.52;0.30;;;9.80;99.90;;;;;;5026468;28;20031;-66
2022/05/29 00:39:53;;;;;;;0.22;0.20;;;9.80;99.90;;;;;;5042988;28;20124;-66
2022/05/29 00:42:22;;;;;;;1.02;0.30;;;9.80;99.90;;;;;;5062373;28;20021;-66
2022/05/29 00:44:49;;;;;;;0.88;0.38;;;9.80;99.90;;;;;;5062900;28;20037;-66
2022/05/29 00:47:20;;;;;;;0.30;0.20;;;9.80;99.90;;;;;;5045280;28;20098;-66
2022/05/29 00:49:48;;;;;;;0.77;0.30;;;9.80;99.90;;;;;;5046340;28;20033;-67
2022/05/29 00:52:21;;;;;;;0.75;0.30;;;9.80;99.90;;;;;;5061548;28;20040;-66
2022/05/29 00:54:54;;;;;;;1.05;0.30;;;9.80;99.90;;;;;;5063099;28;20032;-66
2022/05/29 00:57:24;;;;;;;1.08;0.30;;;9.80;99.90;;;;;;5062382;28;20025;-65
2022/05/29 00:59:50;;;;;;;1.02;0.30;;;9.80;99.90;;;;;;5061661;28;20021;-66
2022/05/29 01:02:16;;;;;;;0.30;0.30;;;9.70;99.90;;;;;;5063569;28;20031;-66
2022/05/29 01:04:45;;;;;;;0.20;0.20;;;9.70;99.90;;;;;;5061510;28;20029;-66
2022/05/29 01:07:13;;;;;;;0.40;0.30;;;9.60;99.90;;;;;;5062908;28;20021;-66
2022/05/29 01:09:42;;;;;;;0.68;0.30;;;9.50;99.90;;;;;;5062733;28;20049;-66
2022/05/29 01:12:45;;;;;;;0.38;0.25;;;9.40;99.90;;;;;;5063651;28;20041;-67
2022/05/29 01:15:29;;;;;;;0.90;0.30;;;9.30;99.90;;;;;;5021349;28;20112;-66
2022/05/29 01:18:16;;;;;;;0.35;0.20;;;9.30;99.90;;;;;;5061208;28;20035;-66
2022/05/29 01:21:06;;;;;;;0.65;0.30;;;9.30;99.90;;;;;;5063712;28;20021;-66
2022/05/29 01:23:55;;;;;;;0.38;0.30;;;9.30;99.90;;;;;;5062211;28;20032;-67
2022/05/29 01:26:47;;;;;;;0.38;0.20;;;9.30;99.90;;;;;;5060775;28;20591;-67
2022/05/29 01:29:18;;;;;;;0.82;0.30;;;9.30;99.90;;;;;;5061871;28;20088;-66
2022/05/29 01:31:59;;;;;;;1.33;0.40;;;9.40;99.90;;;;;;5063315;28;20116;-66
2022/05/29 01:34:54;;;;;;;0.85;0.30;;;9.40;99.90;;;;;;5061674;28;20025;-67
2022/05/29 01:37:24;;;;;;;0.57;0.30;;;9.40;99.90;;;;;;5063680;28;20035;-66
2022/05/29 01:40:11;;;;;;;0.50;0.28;;;9.50;99.90;;;;;;5061170;28;20052;-66
2022/05/29 01:43:10;;;;;;;0.70;0.30;;;9.40;99.90;;;;;;5060786;28;20029;-66
2022/05/29 01:45:54;;;;;;;1.10;0.40;;;9.40;99.90;;;;;;5063320;28;20028;-66
2022/05/29 01:48:34;;;;;;;1.75;0.43;;;9.40;99.90;;;;;;5060797;28;20025;-66
2022/05/29 01:51:06;;;;;;;0.28;0.28;;;9.40;99.90;;;;;;5059937;28;20056;-65
2022/05/29 01:53:39;;;;;;;0.73;0.30;;;9.40;99.90;;;;;;5061634;28;20032;-66
2022/05/29 01:56:22;;;;;;;1.40;0.40;;;9.40;99.90;;;;;;5061819;28;20052;-66
2022/05/29 01:59:17;;;;;;;0.98;0.30;;;9.30;99.90;;;;;;5062028;28;20055;-65
2022/05/29 02:01:58;;;;;;;1.08;0.32;;;9.30;99.90;;;;;;5062697;28;20050;-66
2022/05/29 02:04:26;;;;;;;1.35;0.40;;;9.40;99.90;;;;;;5059977;28;20083;-66
2022/05/29 02:09:45;;;;;;;1.10;0.38;;;9.40;99.90;;;;;;5061961;28;20060;-65
2022/05/29 02:12:16;;;;;;;0.90;0.40;;;9.40;99.90;;;;;;5062056;28;20060;-66
2022/05/29 02:14:51;;;;;;;0.65;0.30;;;9.40;99.90;;;;;;5060751;28;20053;-66
2022/05/29 02:17:25;;;;;;;0.65;0.30;;;9.40;99.90;;;;;;5059897;28;20041;-66
2022/05/29 02:19:57;;;;;;;0.75;0.30;;;9.40;99.90;;;;;;5061184;28;20048;-66
2022/05/29 02:22:29;;;;;;;1.02;0.40;;;9.30;99.90;;;;;;5059797;28;20108;-66
2022/05/29 02:25:21;;;;;;;0.85;0.30;;;9.30;99.90;;;;;;5060716;28;20088;-66
2022/05/29 02:28:24;;;;;;;0.57;0.30;;;9.30;99.90;;;;;;5060219;28;20095;-66
2022/05/29 02:31:00;;;;;;;0.45;0.30;;;9.30;99.90;;;;;;5028933;28;20033;-66
2022/05/29 02:33:43;;;;;;;0.38;0.20;;;9.20;99.90;;;;;;5060338;28;20035;-66
2022/05/29 02:36:29;;;;;;;0.63;0.30;;;9.20;99.90;;;;;;5062075;28;20100;-66
2022/05/29 02:38:54;;;;;;;0.60;0.28;;;9.20;99.90;;;;;;5059537;28;20025;-66
2022/05/29 02:41:28;;;;;;;0.45;0.30;;;9.20;99.90;;;;;;5060970;28;20025;-66
2022/05/29 02:43:59;;;;;;;0.88;0.30;;;9.30;99.90;;;;;;5059604;28;20029;-66
2022/05/29 02:46:47;;;;;;;1.23;0.33;;;9.30;99.90;;;;;;5060129;28;20013;-66
2022/05/29 02:49:13;;;;;;;0.98;0.30;;;9.30;99.90;;;;;;5060313;28;20271;-66
2022/05/29 02:51:51;;;;;;;1.15;0.30;;;9.30;99.90;;;;;;5060651;28;20116;-65
2022/05/29 02:54:27;;;;;;;0.95;0.30;;;9.30;99.90;;;;;;5062199;28;20017;-66
2022/05/29 02:56:53;;;;;;;1.25;0.40;;;9.30;99.90;;;;;;5059554;28;20029;-66
2022/05/29 02:59:23;;;;;;;0.63;0.20;;;9.30;99.90;;;;;;5043431;28;20021;-65
2022/05/29 03:01:55;;;;;;;0.55;0.40;;;9.30;99.90;;;;;;5061768;28;20017;-65
2022/05/29 03:04:36;;;;;;;0.40;0.22;;;9.40;99.90;;;;;;5058580;28;20033;-66
2022/05/29 03:07:41;;;;;;;0.82;0.30;;;9.40;99.90;;;;;;5060674;28;20024;-66
2022/05/29 03:10:15;;;;;;;0.90;0.30;;;9.40;99.90;;;;;;5061769;28;20033;-66
2022/05/29 03:13:01;;;;;;;0.40;0.30;;;9.40;99.90;;;;;;5059281;28;20114;-68
2022/05/29 03:16:04;;;;;;;0.40;0.30;;;9.40;99.90;;;;;;5060201;28;20052;-65
2022/05/29 03:18:32;;;;;;;0.43;0.30;;;9.40;99.90;;;;;;5059671;28;20017;-66
2022/05/29 03:21:22;;;;;;;0.73;0.30;;;9.50;99.90;;;;;;5059457;28;20043;-66
2022/05/29 03:23:55;;;;;;;1.02;0.30;;;9.40;99.90;;;;;;5061661;28;20056;-66
2022/05/29 03:26:40;;;;;;;0.55;0.30;;;9.40;99.90;;;;;;5060296;28;20107;-66
2022/05/29 03:29:10;;;;;;;0.52;0.30;;;9.40;99.90;;;;;;5061262;28;20029;-66
2022/05/29 03:31:38;;;;;;;0.20;0.20;;;9.40;99.90;;;;;;5061084;28;20127;-66
2022/05/29 03:34:04;;;;;;;1.58;0.77;;;9.50;99.90;;;;;;5041722;28;20089;-66
2022/05/29 03:36:30;;;;;;;0.95;0.40;;;9.50;99.90;;;;;;5043344;28;20024;-66
2022/05/29 03:38:56;;;;;;;0.45;0.40;;;9.60;99.90;;;;;;5042020;28;20037;-66
2022/05/29 03:41:44;;;;;;;0.63;0.30;;;9.60;99.90;;;;;;5061423;28;20021;-66
2022/05/29 03:44:11;;;;;;;0.25;0.20;;;9.60;99.90;;;;;;5060758;28;20145;-65
2022/05/29 03:46:39;;;;;;;1.15;0.30;;;9.60;99.90;;;;;;5059149;28;20067;-65
2022/05/29 03:49:08;;;;;;;0.88;0.30;;;9.70;99.90;;;;;;5061166;28;20032;-66
2022/05/29 03:51:35;;;;;;;0.57;0.30;;;9.70;99.90;;;;;;5058531;28;20067;-66
2022/05/29 03:54:00;;;;;;;0.30;0.20;;;9.70;99.90;;;;;;5043398;28;20072;-65
2022/05/29 03:56:27;;;;;;;0.57;0.30;;;9.70;99.90;;;;;;5058380;28;20074;-66
2022/05/29 03:58:52;;;;;;;0.73;0.30;;;9.70;99.90;;;;;;5061402;28;20107;-66
2022/05/29 04:01:18;;;;;;;1.13;0.40;;;9.70;99.90;;;;;;5042402;28;20419;-66
2022/05/29 04:03:44;;;;;;;0.85;0.30;;;9.70;99.90;;;;;;5042003;28;20021;-66
2022/05/29 04:06:09;;;;;;;0.40;0.22;;;9.70;99.90;;;;;;5043038;28;20041;-66
2022/05/29 04:14:05;;;;;;;0.55;0.30;;;9.80;99.90;;;;;;5060065;28;20068;-64
2022/05/29 04:16:31;;;;;;;0.98;0.30;;;9.80;99.90;;;;;;5063020;28;20025;-66
2022/05/29 04:18:56;;;;;;;0.60;0.30;;;9.90;99.90;;;;;;5046915;28;20033;-66
2022/05/29 04:21:22;;;;;;;1.15;0.40;;;9.90;99.90;;;;;;5062588;28;20451;-66
2022/05/29 04:23:48;;;;;;;0.47;0.30;;;9.90;99.90;;;;;;5047174;28;20100;-66
2022/05/29 04:26:14;;;;;;;0.43;0.22;;;9.90;99.90;;;;;;5045458;28;20029;-66
2022/05/29 04:28:40;;;;;;;0.60;0.30;;;9.90;99.90;;;;;;5065106;28;20021;-66
2022/05/29 04:31:06;;;;;;;0.70;0.30;;;10.00;99.90;;;;;;5063693;28;20036;-66
2022/05/29 04:33:32;;;;;;;0.70;0.30;;;10.00;99.90;;;;;;5046184;28;20029;-67
2022/05/29 04:35:58;;;;;;;0.43;0.30;;;10.10;99.90;;;;;;5064499;28;20037;-66
2022/05/29 04:38:24;;;;;;;0.63;0.30;;;10.10;99.90;;;;;;5045561;28;20029;-66
2022/05/29 04:40:51;;;;;;;0.43;0.25;;;10.10;99.90;;;;;;5064710;28;20013;-66
2022/05/29 04:43:17;;;;;;;0.70;0.30;;;10.10;99.90;;;;;;5061828;28;20033;-66
2022/05/29 04:45:44;;;;;;;1.00;0.45;;;10.10;99.90;;;;;;5064889;28;20025;-66
2022/05/29 04:48:11;;;;;;;0.40;0.30;;;10.20;99.90;;;;;;5045363;28;20477;-66
2022/05/29 04:50:37;;;;;;;0.20;0.20;;;10.20;99.90;;;;;;5046007;28;20059;-66
2022/05/29 04:53:04;;;;;;;0.40;0.30;;;10.30;99.90;;;;;;5062828;28;20029;-65
2022/05/29 04:55:30;;;;;;;0.45;0.30;;;10.30;99.90;;;;;;5063095;28;20025;-65
2022/05/29 04:57:56;;;;;;;0.57;0.30;;;10.30;99.90;;;;;;5046257;28;20029;-66
2022/05/29 05:00:22;;;;;;;0.80;0.30;;;10.40;99.90;;;;;;5062743;28;20029;-66
2022/05/29 05:02:48;;;;;;;0.28;0.20;;;10.40;99.90;;;;;;5064032;28;20116;-66
2022/05/29 05:05:15;;;;;;;0.28;0.28;;;10.30;99.90;;;;;;5062816;28;20025;-66
2022/05/29 05:07:41;;;;;;;0.40;0.20;;;10.40;99.90;;;;;;5063830;28;20041;-66
2022/05/29 05:10:12;;;;;;;0.80;0.30;;;10.40;99.90;;;;;;5045596;28;20021;-66
2022/05/29 05:12:42;;;;;;;0.67;0.30;;;10.40;99.90;;;;;;5061276;28;20127;-65
2022/05/29 05:15:09;;;;;;;1.25;0.38;;;10.50;99.90;;;;;;5062298;28;20307;-66
2022/05/29 05:17:35;;;;;;;0.88;0.30;;;10.60;99.90;;;;;;5062413;28;20081;-66
2022/05/29 05:20:02;;;;;;;0.22;0.20;;;10.60;99.90;;;;;;5062789;28;20025;-65
2022/05/29 05:22:27;;;;;;;0.80;0.30;;;10.60;99.90;;;;;;5062799;28;20056;-65
2022/05/29 05:24:53;;;;;;;0.47;0.30;;;10.50;99.90;;;;;;5062128;28;20481;-65
2022/05/29 05:27:19;;;;;;;0.20;0.20;;;10.60;99.90;;;;;;5061967;28;20022;-65
2022/05/29 05:29:44;;;;;;;0.47;0.30;;;10.60;99.90;;;;;;5061065;28;20029;-65
2022/05/29 05:32:10;;;;;;;1.02;0.38;;;10.60;99.90;;;;;;5061854;28;20045;-65
2022/05/29 05:34:36;;;;;;;0.90;0.30;;;10.60;99.90;;;;;;5060433;28;20093;-65
2022/05/29 05:37:03;;;;;;;0.20;0.20;;;10.60;99.90;;;;;;5045759;28;20037;-65
2022/05/29 05:39:29;;;;;;;0.38;0.30;;;10.70;99.90;;;;;;5044315;28;20582;-65
2022/05/29 05:41:55;;;;;;;0.20;0.20;;;10.70;99.90;;;;;;5062024;28;20069;-65
2022/05/29 05:44:20;;;;;;;0.35;0.20;;;10.70;99.90;;;;;;5063104;28;20116;-65
2022/05/29 05:46:53;;;;;;;0.38;0.20;;;10.80;99.90;;;;;;5062223;28;20047;-66
2022/05/29 05:49:21;;;;;;;0.63;0.30;;;10.80;99.90;;;;;;5062004;28;20614;-65
2022/05/29 05:51:47;;;;;;;0.25;0.20;;;10.90;99.90;;;;;;5061815;28;20037;-65
2022/05/29 05:54:13;;;;;;;0.20;0.20;;;10.90;99.90;;;;;;5063623;28;20025;-66
2022/05/29 05:56:43;;;;;;;0.38;0.28;;;11.00;99.90;;;;;;5062163;28;20033;-65
2022/05/29 05:59:09;;;;;;;0.20;0.20;;;11.10;99.90;;;;;;5061395;28;20029;-66
2022/05/29 06:01:35;;;;;;;0.20;0.20;;;11.30;99.90;;;;;;5061693;28;20033;-66
2022/05/29 06:04:01;;;;;;;0.20;0.20;;;11.40;99.90;;;;;;5043350;28;20032;-66
2022/05/29 06:06:26;;;;;;;0.68;0.30;;;11.50;99.90;;;;;;5061483;28;20033;-66
2022/05/29 06:08:52;;;;;;;0.28;0.20;;;11.60;99.90;;;;;;5043457;28;20033;-66
2022/05/29 06:11:18;;;;;;;0.43;0.20;;;11.80;99.90;;;;;;5028512;28;20087;-67
2022/05/29 06:13:43;;;;;;;0.32;0.20;;;11.90;99.90;;;;;;5027058;28;20024;-66
2022/05/29 06:16:09;;;;;;;0.68;0.30;;;12.00;99.90;;;;;;5061265;28;20067;-66
2022/05/29 06:18:35;;;;;;;0.38;0.22;;;11.90;99.90;;;;;;5062413;28;20673;-67
2022/05/29 06:21:04;;;;;;;0.40;0.22;;;11.90;99.90;;;;;;5061675;28;20116;-67
2022/05/29 06:23:31;;;;;;;0.35;0.20;;;11.80;99.90;;;;;;5061010;28;20017;-67
2022/05/29 06:26:02;;;;;;;0.20;0.20;;;11.90;99.90;;;;;;5059656;28;20039;-67
2022/05/29 06:28:28;;;;;;;0.52;0.25;;;11.90;99.90;;;;;;5062612;28;20047;-67
2022/05/29 06:30:54;;;;;;;0.43;0.20;;;12.00;99.90;;;;;;5043312;28;20509;-68
2022/05/29 06:33:19;;;;;;;0.20;0.20;;;12.10;99.90;;;;;;5061858;28;20037;-67
2022/05/29 06:35:45;;;;;;;0.30;0.20;;;11.90;99.90;;;;;;5044146;28;20056;-66
2022/05/29 06:38:11;;;;;;;0.93;0.30;;;11.90;99.90;;;;;;5059279;28;20017;-66
2022/05/29 06:40:42;;;;;;;0.55;0.30;;;11.50;99.90;;;;;;5062211;28;20032;-66
2022/05/29 06:43:09;;;;;;;0.63;0.30;;;11.40;99.90;;;;;;5027673;28;20144;-67
2022/05/29 06:45:35;;;;;;;0.57;0.30;;;11.20;99.90;;;;;;5060914;28;20017;-66
2022/05/29 06:48:01;;;;;;;0.28;0.20;;;11.00;99.90;;;;;;5059644;28;20092;-65
2022/05/29 06:50:27;;;;;;;0.28;0.22;;;10.90;99.90;;;;;;5060698;28;20036;-66
2022/05/29 06:52:53;;;;;;;0.38;0.20;;;11.00;99.90;;;;;;5062001;28;20090;-66
2022/05/29 06:55:21;;;;;;;0.28;0.20;;;10.90;99.90;;;;;;5026745;28;20471;-66
2022/05/29 06:57:47;;;;;;;0.80;0.52;;;11.00;99.90;;;;;;5061835;28;20033;-66
2022/05/29 07:08:42;;;;;;;1.15;0.55;;;11.40;99.90;;;;;;5059695;28;20060;-66
2022/05/29 07:11:15;;;;;;;0.57;0.30;;;11.50;99.90;;;;;;5060620;28;20108;-66
2022/05/29 07:13:41;;;;;;;0.55;0.30;;;11.60;99.90;;;;;;5060748;28;20029;-66
2022/05/29 07:16:07;;;;;;;0.20;0.20;;;11.70;99.90;;;;;;5060184;28;20082;-66
2022/05/29 07:18:33;;;;;;;0.20;0.20;;;11.60;99.90;;;;;;5059888;28;20025;-67
2022/05/29 07:21:03;;;;;;;0.35;0.20;;;11.60;99.90;;;;;;5059419;28;20040;-66
2022/05/29 07:23:30;;;;;;;0.38;0.28;;;11.70;99.90;;;;;;5059859;28;20082;-66
2022/05/29 07:25:57;;;;;;;0.38;0.30;;;11.70;99.90;;;;;;5058812;28;20021;-66
2022/05/29 07:28:23;;;;;;;0.50;0.28;;;11.70;99.90;;;;;;5061764;28;20024;-66
2022/05/29 07:30:51;;;;;;;0.43;0.20;;;11.80;99.90;;;;;;5060108;28;20025;-66
2022/05/29 07:33:17;;;;;;;0.38;0.22;;;11.80;99.90;;;;;;5061015;28;20108;-66
2022/05/29 07:35:43;;;;;;;0.77;0.30;;;11.80;99.90;;;;;;5061309;28;20477;-67
2022/05/29 07:38:09;;;;;;;0.55;0.30;;;11.80;99.90;;;;;;5060329;28;20028;-66
2022/05/29 07:40:35;;;;;;;0.75;0.38;;;11.80;99.90;;;;;;5059823;28;20053;-66
2022/05/29 07:43:19;;;;;;;0.65;0.30;;;11.90;99.90;;;;;;5058756;28;20466;-66
2022/05/29 07:45:49;;;;;;;0.47;0.20;;;11.90;99.90;;;;;;5060400;28;20078;-66
2022/05/29 07:48:16;;;;;;;0.75;0.20;;;11.90;99.90;;;;;;5058886;28;20025;-66
2022/05/29 07:50:43;;;;;;;0.20;0.20;;;12.00;99.90;;;;;;5059885;28;20075;-66
2022/05/29 07:53:08;;;;;;;0.35;0.20;;;12.20;99.90;;;;;;5061011;28;20116;-67
2022/05/29 07:55:37;;;;;;;0.28;0.20;;;12.40;99.90;;;;;;5041779;28;20029;-67
2022/05/29 07:58:06;;;;;;;0.70;0.30;;;12.90;99.90;;;;;;5059797;28;20094;-66
2022/05/29 08:00:33;;;;;;;0.20;0.20;;;13.20;99.90;;;;;;5042230;28;20029;-66
2022/05/29 08:02:59;;;;;;;0.20;0.20;;;13.30;99.90;;;;;;5059520;28;20488;-68
2022/05/29 08:05:25;;;;;;;0.60;0.30;;;13.20;99.90;;;;;;5058984;28;20035;-66
2022/05/29 08:07:52;;;;;;;0.70;0.30;;;13.10;99.90;;;;;;5059223;28;20055;-67
2022/05/29 08:10:20;;;;;;;0.68;0.30;;;13.30;99.90;;;;;;5059666;28;20025;-66
2022/05/29 08:12:46;;;;;;;0.20;0.20;;;13.50;99.90;;;;;;5057994;28;20033;-66
2022/05/29 08:15:13;;;;;;;0.30;0.20;;;12.90;99.90;;;;;;5059477;28;20071;-65
2022/05/29 08:17:39;;;;;;;0.28;0.20;;;13.00;99.90;;;;;;5058299;28;20036;-66
2022/05/29 08:20:06;;;;;;;0.47;0.20;;;12.90;99.90;;;;;;5043424;28;20033;-65
2022/05/29 08:22:32;;;;;;;0.38;0.20;;;12.80;99.90;;;;;;5058647;28;20037;-67
2022/05/29 08:30:43;;;;;;;0.22;0.20;;;12.50;99.90;;;;;;5058401;28;20045;-66
2022/05/29 08:33:13;;;;;;;0.30;0.20;;;12.60;99.90;;;;;;5060375;28;20071;-66
2022/05/29 08:35:41;;;;;;;0.90;0.30;;;12.60;99.90;;;;;;5058906;28;20029;-66
2022/05/29 08:38:09;;;;;;;0.28;0.20;;;12.30;99.90;;;;;;5059686;28;20564;-66
2022/05/29 08:40:42;;;;;;;0.70;0.28;;;12.30;99.90;;;;;;5059319;28;20017;-68
2022/05/29 08:43:12;;;;;;;0.47;0.30;;;12.30;99.90;;;;;;5059640;28;20017;-66
2022/05/29 08:45:39;;;;;;;0.52;0.28;;;12.70;99.90;;;;;;5059632;28;20013;-66
2022/05/29 08:48:05;;;;;;;0.52;0.30;;;12.60;99.90;;;;;;5059436;28;20036;-65
2022/05/29 08:50:44;;;;;;;0.40;0.20;;;12.90;99.90;;;;;;5058921;28;20029;-66
2022/05/29 08:53:48;;;;;;;0.47;0.20;;;13.30;99.90;;;;;;5058999;28;20070;-66
2022/05/29 08:56:26;;;;;;;0.47;0.25;;;13.50;99.90;;;;;;5035361;28;20037;-66
2022/05/29 08:59:07;;;;;;;0.45;0.28;;;13.50;99.90;;;;;;5059242;28;20120;-66
2022/05/29 09:01:54;;;;;;;0.43;0.32;;;13.20;99.90;;;;;;5061086;28;20067;-66
2022/05/29 09:04:33;;;;;;;2.72;0.40;;;13.30;99.90;;;;;;5060807;28;20091;-66
2022/05/29 09:07:00;;;;;;;0.20;0.20;;;13.10;99.90;;;;;;5064448;28;20032;-66
2022/05/29 09:09:32;;;;;;;0.45;0.20;;;13.30;99.90;;;;;;5061560;28;20021;-65
2022/05/29 09:12:04;;;;;;;0.75;0.35;;;13.20;99.90;;;;;;5063482;28;20041;-65
2022/05/29 09:14:51;;;;;;;0.20;0.20;;;13.20;99.90;;;;;;5062143;28;20078;-66
2022/05/29 09:17:35;;;;;;;0.20;0.20;;;13.30;99.90;;;;;;5061113;28;20025;-66
2022/05/29 09:20:00;;;;;;;0.28;0.20;;;13.40;99.90;;;;;;5062963;28;20033;-66
2022/05/29 09:22:31;;;;;;;0.20;0.20;;;13.30;99.90;;;;;;5061613;28;20096;-66
2022/05/29 09:25:35;;;;;;;0.43;0.20;;;13.50;99.90;;;;;;5061605;28;20088;-65
2022/05/29 09:28:16;;;;;;;0.32;0.20;;;13.40;99.90;;;;;;5062219;28;20131;-67
2022/05/29 09:30:42;;;;;;;0.20;0.20;;;13.40;99.90;;;;;;5060841;28;20554;-66
2022/05/29 09:33:19;;;;;;;0.60;0.30;;;13.60;99.90;;;;;;5063267;28;20534;-66
2022/05/29 09:35:54;;;;;;;0.28;0.20;;;13.50;99.90;;;;;;5062108;28;20043;-66
2022/05/29 09:38:48;;;;;;;0.65;0.30;;;13.60;99.90;;;;;;5060926;28;20025;-66
2022/05/29 09:41:28;;;;;;;0.38;0.20;;;13.60;99.90;;;;;;5063817;28;20084;-66
2022/05/29 09:44:10;;;;;;;0.28;0.20;;;13.70;99.90;;;;;;5061125;28;20050;-66
2022/05/29 09:46:44;;;;;;;0.28;0.20;;;13.70;99.90;;;;;;5060886;28;20033;-66
2022/05/29 09:49:45;;;;;;;0.43;0.20;;;13.90;99.90;;;;;;5063006;28;20067;-66
2022/05/29 09:52:22;;;;;;;0.37;0.20;;;14.10;99.90;;;;;;5060759;28;20041;-66
2022/05/29 09:54:53;;;;;;;0.10;0.10;;;13.80;99.90;;;;;;5061433;28;20040;-66
2022/05/29 09:57:26;;;;;;;0.30;0.20;;;13.90;99.90;;;;;;5062790;28;20060;-66
2022/05/29 10:00:04;;;;;;;0.45;0.20;;;14.10;99.90;;;;;;5060377;28;20059;-65
2022/05/29 10:02:36;;;;;;;0.20;0.20;;;14.10;99.90;;;;;;5063332;28;20047;-65
2022/05/29 10:05:02;;;;;;;0.68;0.22;;;13.80;99.90;;;;;;5061374;28;20051;-66
2022/05/29 10:07:45;;;;;;;0.38;0.20;;;13.70;99.90;;;;;;5063130;28;20029;-66
2022/05/29 10:10:32;;;;;;;0.52;0.20;;;13.20;99.90;;;;;;5062805;28;20094;-66
2022/05/29 10:12:59;;;;;;;0.40;0.20;;;13.10;99.90;;;;;;5059049;28;20040;-66
2022/05/29 10:15:25;;;;;;;0.30;0.20;;;13.20;99.90;;;;;;5061421;28;20106;-66
2022/05/29 10:17:56;;;;;;;0.80;0.32;;;13.10;99.90;;;;;;5061199;28;20033;-66
2022/05/29 10:20:42;;;;;;;0.50;0.20;;;13.10;99.90;;;;;;5062822;28;20081;-66
2022/05/29 10:23:28;;;;;;;0.50;0.20;;;13.30;99.90;;;;;;5062625;28;20104;-65
2022/05/29 10:26:01;;;;;;;0.10;0.10;;;13.60;99.90;;;;;;5059816;28;20043;-65
2022/05/29 10:28:31;;;;;;;0.65;0.25;;;13.60;99.90;;;;;;5062982;28;20040;-65
2022/05/29 10:31:10;;;;;;;0.60;0.20;;;13.80;99.90;;;;;;5059858;28;20021;-65
2022/05/29 10:33:36;;;;;;;0.88;0.30;;;13.90;99.90;;;;;;5059773;28;20025;-65
2022/05/29 10:36:14;;;;;;;0.63;0.30;;;13.60;99.90;;;;;;5044355;28;20029;-66
2022/05/29 10:38:40;;;;;;;0.45;0.20;;;13.10;99.90;;;;;;5061005;28;20392;-67
2022/05/29 10:41:07;;;;;;;0.35;0.20;;;13.00;99.90;;;;;;5062733;28;20021;-65
2022/05/29 10:43:43;;;;;;;0.20;0.20;;;13.10;99.90;;;;;;5043369;28;20021;-65
2022/05/29 10:46:19;;;;;;;0.60;0.20;;;12.70;99.90;;;;;;5062125;28;20036;-65
2022/05/29 10:49:26;;;;;;;0.40;0.20;;;12.80;99.90;;;;;;5062948;28;20491;-65
2022/05/29 10:51:59;;;;;;;0.28;0.17;;;13.00;99.90;;;;;;5062767;28;20033;-66
2022/05/29 10:54:58;;;;;;;0.30;0.20;;;13.40;99.90;;;;;;5062310;28;20131;-65
2022/05/29 10:57:42;;;;;;;0.60;0.20;;;13.60;99.90;;;;;;5061732;28;20025;-65
2022/05/29 11:00:33;;;;;;;0.55;0.20;;;13.90;99.90;;;;;;5060746;28;20074;-65
2022/05/29 11:03:37;;;;;;;0.17;0.17;;;14.30;99.90;;;;;;5060305;28;20380;-65
2022/05/29 11:06:26;;;;;;;0.30;0.20;;;15.10;99.90;;;;;;5061723;28;20107;-66
2022/05/29 11:09:10;;;;;;;0.20;0.20;;;15.00;99.90;;;;;;5058835;28;20021;-66
2022/05/29 11:12:00;;;;;;;0.50;0.20;;;15.50;99.90;;;;;;5060385;28;20040;-66
2022/05/29 11:14:28;;;;;;;0.82;0.30;;;15.00;99.90;;;;;;5059730;28;20078;-66
2022/05/29 11:17:39;;;;;;;0.28;0.20;;;14.50;99.90;;;;;;5060541;28;20385;-66
2022/05/29 11:20:38;;;;;;;0.28;0.20;;;14.00;99.90;;;;;;5038246;28;20040;-66
2022/05/29 11:23:35;;;;;;;0.20;0.20;;;14.00;99.90;;;;;;5061257;28;20494;-66
2022/05/29 11:26:32;;;;;;;0.28;0.20;;;14.00;99.90;;;;;;5058718;28;20056;-66
2022/05/29 11:29:22;;;;;;;0.28;0.20;;;13.70;99.90;;;;;;5048910;28;20047;-66
2022/05/29 11:32:28;;;;;;;0.35;0.20;;;13.70;99.90;;;;;;5061207;28;20092;-66
2022/05/29 11:35:16;;;;;;;0.20;0.20;;;13.80;99.90;;;;;;5014449;28;20128;-66
2022/05/29 11:38:06;;;;;;;0.25;0.20;;;13.80;99.90;;;;;;5060874;28;20025;-66
2022/05/29 11:40:37;;;;;;;0.40;0.20;;;14.10;99.90;;;;;;5061256;28;20369;-66
2022/05/29 11:43:14;;;;;;;0.73;0.30;;;14.70;99.90;;;;;;5058511;28;20021;-66
2022/05/29 11:51:46;;;;;;;0.32;0.20;;;14.90;99.90;;;;;;5059949;28;20048;-67
2022/05/29 11:54:42;;;;;;;0.30;0.20;;;14.50;99.90;;;;;;5059901;28;20053;-66
2022/05/29 11:57:14;;;;;;;0.47;0.20;;;14.30;99.90;;;;;;5061058;28;20433;-66
2022/05/29 11:59:49;;;;;;;;;;;13.80;99.90;;;;;;5060465;28;20017;-66
2022/05/29 12:02:21;;;;;;;0.20;0.15;;;13.80;99.90;;;;;;5060906;28;19968;-66
2022/05/29 12:04:54;;;;;;;;;;;13.60;99.90;;;;;;5059984;28;20029;-66
2022/05/29 12:07:26;;;;;;;0.10;0.10;;;13.40;99.90;;;;;;5061030;28;19964;-66
2022/05/29 12:09:58;;;;;;;0.52;0.32;;;13.20;99.90;;;;;;5059194;28;20032;-66
2022/05/29 12:12:38;;;;;;;0.50;0.20;;;13.00;99.90;;;;;;5059803;28;20078;-66
2022/05/29 12:15:10;;;;;;;0.32;0.20;;;13.00;99.90;;;;;;5059277;28;20052;-66
2022/05/29 12:17:58;;;;;;;0.63;0.30;;;13.00;99.90;;;;;;5059671;28;20040;-67
2022/05/29 12:20:37;;;;;;;0.30;0.20;;;13.00;99.90;;;;;;5060580;28;20025;-66
2022/05/29 12:23:10;;;;;;;0.20;0.20;;;13.10;99.90;;;;;;5060650;28;20021;-66
2022/05/29 12:25:54;;;;;;;0.20;0.20;;;13.20;99.90;;;;;;5059770;28;20044;-66
2022/05/29 12:28:45;;;;;;;2.20;0.82;;;13.30;99.90;;;;;;5061187;28;20085;-66
2022/05/29 12:31:26;;;;;;;0.47;0.20;;;13.50;99.90;;;;;;5058818;28;20407;-66
2022/05/29 12:33:51;;;;;;;0.45;0.20;;;13.90;99.90;;;;;;5059063;28;20032;-66
2022/05/29 12:36:29;;;;;;;0.35;0.20;;;14.40;99.90;;;;;;5061079;28;20025;-66
2022/05/29 12:38:57;;;;;;;0.10;0.10;;;14.70;99.90;;;;;;5063233;28;20407;-66
2022/05/29 12:41:35;;;;;;;0.20;0.20;;;15.00;99.90;;;;;;5064956;28;20032;-66
2022/05/29 12:44:34;;;;;;;0.10;0.10;;;15.30;99.90;;;;;;5063963;28;20044;-66
2022/05/29 12:47:14;;;;;;;0.20;0.20;;;15.40;99.90;;;;;;5063412;28;20025;-66
2022/05/29 12:49:39;;;;;;;0.20;0.20;;;15.40;99.90;;;;;;5064576;28;20029;-66
2022/05/29 12:52:14;;;;;;;0.25;0.20;;;15.20;99.90;;;;;;5062971;28;20037;-66
2022/05/29 12:55:12;;;;;;;0.25;0.20;;;14.90;99.90;;;;;;5062639;28;20082;-66
2022/05/29 12:57:56;;;;;;;0.63;0.38;;;14.80;99.90;;;;;;5064259;28;20025;-66
2022/05/29 13:00:39;;;;;;;0.20;0.20;;;14.40;99.90;;;;;;5061388;28;20093;-65
2022/05/29 13:03:40;;;;;;;0.28;0.20;;;14.10;99.90;;;;;;5064082;28;20040;-66
2022/05/29 13:06:24;;;;;;;0.20;0.20;;;13.50;99.90;;;;;;5063963;28;20021;-67
2022/05/29 13:09:27;;;;;;;0.43;0.30;;;13.50;99.90;;;;;;5062459;28;20429;-68
2022/05/29 13:12:07;;;;;;;0.35;0.20;;;13.60;99.90;;;;;;5062023;28;20032;-67
2022/05/29 13:14:35;;;;;;;0.45;0.20;;;13.60;99.90;;;;;;5062557;28;20021;-67
2022/05/29 13:17:22;;;;;;;0.20;0.20;;;13.70;99.90;;;;;;5062666;28;20033;-65
2022/05/29 13:19:57;;;;;;;0.20;0.20;;;13.90;99.90;;;;;;5064334;28;20412;-67
2022/05/29 13:22:45;;;;;;;0.47;0.20;;;14.10;99.90;;;;;;5063171;28;20025;-65
2022/05/29 13:25:12;;;;;;;0.28;0.20;;;14.00;99.90;;;;;;5061205;28;20025;-65
2022/05/29 13:27:38;;;;;;;0.25;0.20;;;14.10;99.90;;;;;;5045577;28;20059;-65
2022/05/29 13:30:07;;;;;;;0.25;0.20;;;14.40;99.90;;;;;;5060904;28;20013;-66
2022/05/29 13:32:34;;;;;;;0.40;0.30;;;14.50;99.90;;;;;;5062278;28;20044;-65
2022/05/29 13:35:03;;;;;;;1.00;0.73;;;14.60;99.90;;;;;;5062085;28;20108;-65
2022/05/29 13:37:32;;;;;;;0.30;0.20;;;14.70;99.90;;;;;;5061887;28;20025;-65
2022/05/29 13:40:19;;;;;;;0.17;0.13;;;14.70;99.90;;;;;;5061720;28;20092;-65
2022/05/29 13:42:50;;;;;;;0.38;0.20;;;14.80;99.90;;;;;;5060671;28;20028;-65
2022/05/29 13:45:19;;;;;;;0.40;0.20;;;14.80;99.90;;;;;;5061986;28;20029;-65
2022/05/29 13:48:05;;;;;;;0.47;0.20;;;14.90;99.90;;;;;;5060470;28;20032;-65
2022/05/29 13:50:50;;;;;;;0.10;0.10;;;14.40;99.90;;;;;;5060962;28;20096;-65
2022/05/29 13:53:32;;;;;;;0.38;0.20;;;14.30;99.90;;;;;;5061550;28;20059;-65